Upstream stations:
Downstream station:
SHEF ID: WANO2 Cimarron River near Waynoka, OK
STATION TYPE:
Regulating: Stage = 9.00, Flow = 4005
PRECIP STAGE RIV-FLOW BAT-LOAD
in ft cfs volt
Ccp-Rev Ccp-Rev Ccp-Rev Ccp-Rev
(US/Central)
01/07 00:00 0.00 5.62 31 12.65
01/07 01:00 0.00 5.61 29 12.65
01/07 02:00 0.00 5.61 29 12.65
01/07 03:00 0.00 5.61 29 12.65
01/07 04:00 0.00 5.61 29 12.57
01/07 05:00 0.00 5.64 34 12.57
01/07 06:00 0.00 5.65 36 12.57
01/07 07:00 0.00 5.62 31 12.49
01/07 08:00 0.00 5.59 27 12.41
01/07 09:00 0.00 5.60 28 12.49
01/07 10:00 0.00 5.66 37 13.05
01/07 11:00 0.00 5.65 36 13.84
01/07 12:00 0.00 5.63 32 14.00
01/07 13:00 0.00 5.60 28 13.92
01/07 14:00 0.00 5.58 24 13.92
01/07 15:00 0.00 5.55 17 13.84
01/07 16:00 0.00 5.51 11 13.76
01/07 17:00 0.00 5.53 14 13.76
01/07 18:00 0.00 5.52 12 13.53
01/07 19:00 0.00 5.51 11 13.21
01/07 20:00 0.00 5.53 14 12.97
01/07 21:00 0.00 5.57 22 12.81
01/07 22:00 0.00 5.60 28 12.73
01/07 23:00 0.00 5.61 29 12.73